Time;durP1;ratioP1;P1;durP2;ratioP2;P2;SDS_P1;SDS_P2;PMS_P1;PMS_P2;Temp;Humidity;BMP_temperature;BMP_pressure;BME280_temperature;BME280_humidity;BME280_pressure;Samples;Min_cycle;Max_cycle;Signal;HPM_P1;HPM_P2
2024/01/22 00:00:12;;;;;;;16.13;5.70;;;-8.80;99.90;;;;;;5034696;28;20117;-71
2024/01/22 00:02:38;;;;;;;9.18;3.85;;;-8.80;99.90;;;;;;5034694;28;20496;-71
2024/01/22 00:05:04;;;;;;;7.78;3.50;;;-8.70;99.90;;;;;;5033172;28;20124;-70
2024/01/22 00:07:29;;;;;;;8.45;3.42;;;-8.70;99.90;;;;;;5034644;28;20486;-70
2024/01/22 00:09:55;;;;;;;6.97;3.47;;;-8.70;99.90;;;;;;5033088;28;20428;-70
2024/01/22 00:12:21;;;;;;;10.45;3.60;;;-8.70;99.90;;;;;;5033262;28;20463;-70
2024/01/22 00:14:47;;;;;;;6.45;3.40;;;-8.70;99.90;;;;;;5033292;28;20037;-70
2024/01/22 00:17:13;;;;;;;6.35;3.28;;;-8.80;99.90;;;;;;5033418;28;20466;-70
2024/01/22 00:19:39;;;;;;;6.97;2.95;;;-8.80;99.90;;;;;;5033449;28;20035;-70
2024/01/22 00:22:04;;;;;;;7.75;3.38;;;-8.80;99.90;;;;;;5034252;28;20029;-71
2024/01/22 00:24:30;;;;;;;6.72;3.55;;;-8.70;99.90;;;;;;5034190;28;20482;-70
2024/01/22 00:26:56;;;;;;;7.65;3.20;;;-8.80;99.90;;;;;;5033914;28;20417;-70
2024/01/22 00:29:21;;;;;;;7.45;3.80;;;-8.70;99.90;;;;;;5034173;28;20038;-70
2024/01/22 00:31:47;;;;;;;9.23;3.70;;;-8.70;99.90;;;;;;5034056;28;20040;-70
2024/01/22 00:34:12;;;;;;;10.65;3.53;;;-8.70;99.90;;;;;;5045677;22;20041;-68
2024/01/22 00:36:38;;;;;;;8.05;4.03;;;-8.70;99.90;;;;;;5013657;28;20034;-68
2024/01/22 00:39:04;;;;;;;10.27;3.67;;;-8.80;99.90;;;;;;5013625;28;20037;-67
2024/01/22 00:41:29;;;;;;;6.22;3.47;;;-8.90;99.90;;;;;;5015101;28;20058;-68
2024/01/22 00:43:55;;;;;;;6.57;3.15;;;-9.00;99.90;;;;;;5032641;28;20025;-68
2024/01/22 00:46:21;;;;;;;6.05;3.50;;;-9.00;99.90;;;;;;5032955;28;20033;-67
2024/01/22 00:48:47;;;;;;;6.10;3.15;;;-9.00;99.90;;;;;;5033901;28;20025;-67
2024/01/22 00:51:13;;;;;;;6.20;3.17;;;-9.00;99.90;;;;;;5034141;28;20127;-67
2024/01/22 00:53:38;;;;;;;7.35;2.70;;;-9.00;99.90;;;;;;5033843;28;20493;-67
2024/01/22 00:56:04;;;;;;;8.27;3.30;;;-8.90;99.90;;;;;;5033907;28;20485;-68
2024/01/22 00:58:30;;;;;;;9.38;3.60;;;-9.00;99.90;;;;;;5031626;28;20034;-67
2024/01/22 01:00:56;;;;;;;5.90;3.00;;;-9.00;99.90;;;;;;5016001;28;20040;-67
2024/01/22 01:03:22;;;;;;;6.05;3.15;;;-8.90;99.90;;;;;;5033274;28;20018;-68
2024/01/22 01:05:47;;;;;;;5.88;2.92;;;-8.90;99.90;;;;;;5033090;28;20036;-68
2024/01/22 01:08:13;;;;;;;9.32;3.55;;;-8.90;99.90;;;;;;5032640;28;20037;-68
2024/01/22 01:10:39;;;;;;;7.88;2.90;;;-8.90;99.90;;;;;;5033757;28;20029;-68
2024/01/22 01:13:04;;;;;;;5.20;3.13;;;-8.90;99.90;;;;;;5033327;28;20107;-68
2024/01/22 01:15:30;;;;;;;5.43;2.70;;;-8.90;99.90;;;;;;5047883;28;20057;-67
2024/01/22 01:17:56;;;;;;;7.38;3.45;;;-8.90;99.90;;;;;;5033674;28;20064;-67
2024/01/22 01:20:22;;;;;;;8.50;3.70;;;-9.00;99.90;;;;;;5033344;28;20057;-68
2024/01/22 01:22:47;;;;;;;4.55;2.78;;;-9.10;99.90;;;;;;5033549;28;20025;-68
2024/01/22 01:25:14;;;;;;;7.13;3.10;;;-9.10;99.90;;;;;;5032194;28;20033;-68
2024/01/22 01:27:39;;;;;;;6.30;3.28;;;-9.10;99.90;;;;;;5033647;28;20477;-68
2024/01/22 01:30:06;;;;;;;6.45;2.40;;;-9.10;99.90;;;;;;5033479;28;20095;-67
2024/01/22 01:32:32;;;;;;;6.38;2.63;;;-9.10;99.90;;;;;;5032971;28;20041;-67
2024/01/22 01:34:58;;;;;;;6.47;3.33;;;-9.10;99.90;;;;;;5033020;28;20405;-67
2024/01/22 01:37:23;;;;;;;5.63;2.95;;;-9.20;99.90;;;;;;5033275;28;20026;-68
2024/01/22 01:39:49;;;;;;;4.00;2.13;;;-9.20;99.90;;;;;;5033211;28;20032;-67
2024/01/22 01:42:14;;;;;;;9.13;3.30;;;-9.20;99.90;;;;;;5032094;28;20401;-67
2024/01/22 01:44:40;;;;;;;7.28;3.38;;;-9.20;99.90;;;;;;5031900;28;20032;-67
2024/01/22 01:47:06;;;;;;;5.60;3.00;;;-9.20;99.90;;;;;;5033243;28;20104;-67
2024/01/22 01:49:32;;;;;;;5.03;2.50;;;-9.20;99.90;;;;;;5032969;28;20057;-67
2024/01/22 01:51:58;;;;;;;6.18;2.90;;;-9.30;99.90;;;;;;5033083;28;20432;-68
2024/01/22 01:54:28;;;;;;;5.00;2.95;;;-9.30;99.90;;;;;;5031889;28;20037;-67
2024/01/22 01:56:55;;;;;;;6.47;3.47;;;-9.40;99.90;;;;;;5032879;28;20104;-67
2024/01/22 01:59:20;;;;;;;6.10;2.95;;;-9.40;99.90;;;;;;5033088;28;20056;-67
2024/01/22 02:01:46;;;;;;;5.28;2.72;;;-9.40;99.90;;;;;;5033065;28;20030;-67
2024/01/22 02:04:12;;;;;;;7.50;2.63;;;-9.50;99.90;;;;;;5031552;28;20038;-67
2024/01/22 02:06:40;;;;;;;3.97;1.98;;;-9.50;99.90;;;;;;5033441;28;20058;-67
2024/01/22 02:09:06;;;;;;;6.65;2.65;;;-9.50;99.90;;;;;;5033247;28;20116;-68
2024/01/22 02:11:32;;;;;;;7.55;2.60;;;-9.50;99.90;;;;;;5032468;28;20443;-67
2024/01/22 02:13:58;;;;;;;5.20;2.22;;;-9.50;99.90;;;;;;5032897;28;20033;-67
2024/01/22 02:16:23;;;;;;;5.30;2.13;;;-9.50;99.90;;;;;;5031596;28;20124;-67
2024/01/22 02:18:49;;;;;;;4.28;1.88;;;-9.50;99.90;;;;;;5033325;28;20049;-67
2024/01/22 02:21:15;;;;;;;5.03;2.00;;;-9.50;99.90;;;;;;5032553;28;20036;-67
2024/01/22 02:23:40;;;;;;;5.80;2.63;;;-9.40;99.90;;;;;;5031768;28;20028;-67
2024/01/22 02:26:06;;;;;;;7.47;2.88;;;-9.40;99.90;;;;;;5031647;28;20041;-67
2024/01/22 02:28:32;;;;;;;6.72;3.15;;;-9.50;99.90;;;;;;5034717;28;20172;-67
2024/01/22 02:30:59;;;;;;;5.28;3.00;;;-9.50;99.90;;;;;;5034922;28;20033;-67
2024/01/22 02:33:25;;;;;;;5.25;3.15;;;-9.60;99.90;;;;;;5035922;28;20560;-68
2024/01/22 02:35:50;;;;;;;5.28;2.22;;;-9.60;99.90;;;;;;5036196;28;20033;-67
2024/01/22 02:38:16;;;;;;;7.30;2.90;;;-9.50;99.90;;;;;;5035403;28;20503;-67
2024/01/22 02:40:42;;;;;;;4.60;1.98;;;-9.50;99.90;;;;;;5036110;28;20029;-67
2024/01/22 02:43:08;;;;;;;6.57;2.67;;;-9.50;99.90;;;;;;5036049;28;20025;-67
2024/01/22 02:45:33;;;;;;;4.60;2.40;;;-9.50;99.90;;;;;;5036052;28;20030;-67
2024/01/22 02:47:59;;;;;;;6.93;2.33;;;-9.50;99.90;;;;;;5034710;28;20041;-67
2024/01/22 02:50:24;;;;;;;4.78;2.20;;;-9.50;99.90;;;;;;5034983;28;20432;-67
2024/01/22 02:52:50;;;;;;;5.20;2.40;;;-9.60;99.90;;;;;;5034687;28;20025;-67
2024/01/22 02:55:16;;;;;;;5.35;2.70;;;-9.60;99.90;;;;;;5036378;28;20462;-67
2024/01/22 02:57:42;;;;;;;6.22;2.60;;;-9.60;99.90;;;;;;5035794;28;20033;-67
2024/01/22 03:00:08;;;;;;;9.25;3.28;;;-9.70;99.90;;;;;;5035342;28;20097;-67
2024/01/22 03:02:34;;;;;;;6.75;2.40;;;-9.70;99.90;;;;;;5035826;28;20034;-67
2024/01/22 03:05:00;;;;;;;6.32;2.97;;;-9.70;99.90;;;;;;5035799;28;20037;-67
2024/01/22 03:07:25;;;;;;;4.80;2.50;;;-9.70;99.90;;;;;;5035811;28;20022;-67
2024/01/22 03:09:51;;;;;;;3.60;2.17;;;-9.70;99.90;;;;;;5035712;28;20021;-67
2024/01/22 03:12:17;;;;;;;7.10;2.58;;;-9.60;99.90;;;;;;5035562;28;20167;-67
2024/01/22 03:14:43;;;;;;;6.20;2.30;;;-9.50;99.90;;;;;;5035396;28;20021;-67
2024/01/22 03:17:09;;;;;;;7.57;2.95;;;-9.50;99.90;;;;;;5034428;28;20030;-67
2024/01/22 03:19:36;;;;;;;7.45;2.53;;;-9.60;99.90;;;;;;5034435;28;20022;-67
2024/01/22 03:22:02;;;;;;;5.57;2.50;;;-9.60;99.90;;;;;;5035111;28;20029;-67
2024/01/22 03:24:27;;;;;;;6.00;2.33;;;-9.70;99.90;;;;;;5035405;28;20029;-68
2024/01/22 03:26:53;;;;;;;4.57;2.53;;;-9.70;99.90;;;;;;5035040;28;20025;-67
2024/01/22 03:29:19;;;;;;;9.20;3.97;;;-9.70;99.90;;;;;;5034215;28;20515;-67
2024/01/22 03:31:44;;;;;;;8.48;3.03;;;-9.70;99.90;;;;;;5035103;28;20060;-68
2024/01/22 03:34:10;;;;;;;5.63;2.72;;;-9.60;99.90;;;;;;5034977;28;20040;-67
2024/01/22 03:36:37;;;;;;;7.55;3.03;;;-9.70;99.90;;;;;;5035062;28;20068;-67
2024/01/22 03:39:05;;;;;;;6.57;2.58;;;-9.70;99.90;;;;;;5033932;28;20026;-67
2024/01/22 03:41:31;;;;;;;6.57;3.03;;;-9.80;99.90;;;;;;5034219;28;20025;-67
2024/01/22 03:43:57;;;;;;;12.65;4.55;;;-9.90;99.90;;;;;;5034781;28;20109;-67
2024/01/22 03:46:22;;;;;;;8.40;3.80;;;-10.00;99.90;;;;;;5034943;28;20033;-67
2024/01/22 03:48:48;;;;;;;6.93;3.67;;;-10.20;99.90;;;;;;5034875;28;20456;-67
2024/01/22 03:51:15;;;;;;;6.78;3.20;;;-10.20;99.90;;;;;;5033712;28;20393;-67
2024/01/22 03:53:41;;;;;;;8.52;3.95;;;-10.20;99.90;;;;;;5034771;28;20030;-67
2024/01/22 03:56:07;;;;;;;10.07;3.78;;;-10.10;99.90;;;;;;5034899;28;20481;-67
2024/01/22 03:58:33;;;;;;;8.30;3.30;;;-10.00;99.90;;;;;;5033697;28;20505;-67
2024/01/22 04:00:59;;;;;;;9.10;3.60;;;-9.90;99.90;;;;;;5034672;28;20018;-67
2024/01/22 04:03:25;;;;;;;6.35;2.50;;;-9.80;99.90;;;;;;5034851;28;20029;-67
2024/01/22 04:05:51;;;;;;;6.35;2.30;;;-9.80;99.90;;;;;;5034457;28;20026;-67
2024/01/22 04:08:16;;;;;;;6.82;2.40;;;-9.80;99.90;;;;;;5034591;28;20065;-67
2024/01/22 04:10:42;;;;;;;4.25;2.55;;;-9.70;99.90;;;;;;5034606;28;20033;-67
2024/01/22 04:13:08;;;;;;;6.43;2.10;;;-9.70;99.90;;;;;;5034527;28;20029;-67
2024/01/22 04:15:34;;;;;;;5.13;2.10;;;-9.70;99.90;;;;;;5034553;28;20032;-67
2024/01/22 04:18:00;;;;;;;5.90;2.00;;;-9.70;99.90;;;;;;5034362;28;20083;-67
2024/01/22 04:20:26;;;;;;;3.75;1.80;;;-9.70;99.90;;;;;;5034391;28;20022;-67
2024/01/22 04:22:52;;;;;;;4.90;2.10;;;-9.70;99.90;;;;;;5034252;28;20021;-67
2024/01/22 04:25:18;;;;;;;5.68;1.85;;;-9.60;99.90;;;;;;5034428;28;20053;-67
2024/01/22 04:27:43;;;;;;;3.75;1.83;;;-9.60;99.90;;;;;;5032941;28;20104;-67
2024/01/22 04:30:10;;;;;;;2.67;1.88;;;-9.60;99.90;;;;;;5034098;28;20041;-67
2024/01/22 04:32:35;;;;;;;5.40;2.13;;;-9.60;99.90;;;;;;5033640;28;20039;-67
2024/01/22 04:35:02;;;;;;;4.40;2.20;;;-9.60;99.90;;;;;;5032774;28;20120;-67
2024/01/22 04:37:28;;;;;;;4.60;2.08;;;-9.60;99.90;;;;;;5034229;28;20072;-67
2024/01/22 04:39:55;;;;;;;4.45;2.20;;;-9.60;99.90;;;;;;5034037;28;20540;-67
2024/01/22 04:42:21;;;;;;;8.50;2.30;;;-9.60;99.90;;;;;;5034523;28;20398;-67
2024/01/22 04:44:47;;;;;;;5.03;2.28;;;-9.60;99.90;;;;;;5033979;28;20028;-67
2024/01/22 04:47:12;;;;;;;5.07;2.53;;;-9.60;99.90;;;;;;5034013;28;20517;-67
2024/01/22 04:49:38;;;;;;;5.93;2.17;;;-9.70;99.90;;;;;;5032841;28;20079;-67
2024/01/22 04:52:04;;;;;;;5.07;2.40;;;-9.80;99.90;;;;;;5032004;28;20389;-67
2024/01/22 04:54:30;;;;;;;5.60;2.17;;;-9.80;99.90;;;;;;5033891;28;20112;-66
2024/01/22 04:56:55;;;;;;;6.18;2.80;;;-9.80;99.90;;;;;;5033993;28;20041;-67
2024/01/22 04:59:21;;;;;;;5.35;2.55;;;-9.80;99.90;;;;;;5033791;28;20112;-66
2024/01/22 05:01:47;;;;;;;4.35;2.10;;;-9.80;99.90;;;;;;5032525;28;20056;-66
2024/01/22 05:04:13;;;;;;;3.33;2.17;;;-9.90;99.90;;;;;;5033849;28;20389;-67
2024/01/22 05:06:38;;;;;;;4.80;2.10;;;-9.90;99.90;;;;;;5033459;28;20030;-67
2024/01/22 05:09:04;;;;;;;6.05;1.98;;;-10.00;99.90;;;;;;5033603;28;20030;-67
2024/01/22 05:11:31;;;;;;;4.30;2.17;;;-10.00;99.90;;;;;;5032300;28;20393;-66
2024/01/22 05:13:57;;;;;;;4.35;2.20;;;-10.00;99.90;;;;;;5032241;28;20055;-66
2024/01/22 05:16:23;;;;;;;3.83;1.90;;;-10.10;99.90;;;;;;5032183;28;20397;-66
2024/01/22 05:18:50;;;;;;;4.88;2.00;;;-10.10;99.90;;;;;;5032533;28;20022;-66
2024/01/22 05:21:16;;;;;;;5.18;2.05;;;-10.10;99.90;;;;;;5033573;28;20057;-66
2024/01/22 05:23:42;;;;;;;8.55;2.92;;;-10.10;99.90;;;;;;5031575;28;20071;-67
2024/01/22 05:26:09;;;;;;;6.63;2.17;;;-10.00;99.90;;;;;;5032835;28;20025;-66
2024/01/22 05:28:36;;;;;;;6.38;2.35;;;-10.00;99.90;;;;;;5033540;28;20025;-66
2024/01/22 05:31:01;;;;;;;6.57;2.45;;;-10.00;99.90;;;;;;5033225;28;20486;-66
2024/01/22 05:33:28;;;;;;;7.38;3.00;;;-10.00;99.90;;;;;;5032949;28;20045;-66
2024/01/22 05:35:55;;;;;;;3.97;2.45;;;-10.00;99.90;;;;;;5031787;28;20029;-66
2024/01/22 05:38:21;;;;;;;4.88;2.42;;;-10.00;99.90;;;;;;5033319;28;20056;-66
2024/01/22 05:40:47;;;;;;;5.00;2.22;;;-10.00;99.90;;;;;;5014979;28;20544;-66
2024/01/22 05:43:13;;;;;;;4.72;2.50;;;-9.90;99.90;;;;;;5033004;28;20117;-66
2024/01/22 05:45:39;;;;;;;4.07;2.10;;;-10.00;99.90;;;;;;5033364;28;20053;-66
2024/01/22 05:48:06;;;;;;;6.63;2.72;;;-10.00;99.90;;;;;;5033330;28;20108;-66
2024/01/22 05:50:32;;;;;;;4.90;3.05;;;-9.90;99.90;;;;;;5032161;28;20029;-66
2024/01/22 05:52:58;;;;;;;8.40;2.70;;;-9.90;99.90;;;;;;5033245;28;20120;-66
2024/01/22 05:55:24;;;;;;;8.50;2.90;;;-9.90;99.90;;;;;;5033101;28;20026;-66
2024/01/22 05:57:49;;;;;;;6.10;2.28;;;-9.90;99.90;;;;;;5033339;28;20430;-66
2024/01/22 06:00:18;;;;;;;5.38;2.35;;;-9.90;99.90;;;;;;5032323;28;20377;-66
2024/01/22 06:02:44;;;;;;;8.15;2.70;;;-9.90;99.90;;;;;;5035001;28;20018;-66
2024/01/22 06:05:10;;;;;;;4.90;2.38;;;-9.90;99.90;;;;;;5036635;28;20500;-67
2024/01/22 06:07:39;;;;;;;5.22;2.90;;;-9.90;99.90;;;;;;5036473;28;20389;-66
2024/01/22 06:10:07;;;;;;;15.70;7.45;;;-9.90;99.90;;;;;;5036879;28;20040;-66
2024/01/22 06:12:34;;;;;;;20.90;7.35;;;-10.00;99.90;;;;;;5036921;28;20499;-66
2024/01/22 06:15:00;;;;;;;19.60;8.63;;;-10.00;99.90;;;;;;5036650;28;20026;-66
2024/01/22 06:17:30;;;;;;;31.92;9.73;;;-10.00;99.90;;;;;;5036486;28;20469;-66
2024/01/22 06:19:59;;;;;;;25.88;11.07;;;-10.00;99.90;;;;;;5036592;28;20505;-66
2024/01/22 06:22:25;;;;;;;23.85;8.93;;;-10.00;99.90;;;;;;5036463;28;20508;-66
2024/01/22 06:24:50;;;;;;;21.90;8.52;;;-9.90;99.90;;;;;;5036288;28;20044;-66
2024/01/22 06:27:16;;;;;;;21.50;8.07;;;-9.90;99.90;;;;;;5036313;28;20029;-66
2024/01/22 06:29:42;;;;;;;20.08;6.90;;;-9.90;99.90;;;;;;5036442;28;20033;-66
2024/01/22 06:32:08;;;;;;;19.08;6.85;;;-9.90;99.90;;;;;;5036464;28;20036;-66
2024/01/22 06:34:35;;;;;;;21.88;8.05;;;-9.90;99.90;;;;;;5056791;22;20044;-77
2024/01/22 06:37:00;;;;;;;19.80;8.32;;;-9.90;99.90;;;;;;5054756;28;20451;-77
2024/01/22 06:39:26;;;;;;;17.92;7.53;;;-9.90;99.90;;;;;;5038514;28;20033;-77
2024/01/22 06:41:52;;;;;;;28.00;12.95;;;-9.90;99.90;;;;;;5057195;28;20461;-77
2024/01/22 06:44:17;;;;;;;25.55;12.05;;;-9.80;99.90;;;;;;5057283;28;20033;-78
2024/01/22 06:46:43;;;;;;;26.02;10.77;;;-9.80;99.90;;;;;;5057026;28;20029;-78
2024/01/22 06:49:09;;;;;;;25.90;10.00;;;-9.80;99.90;;;;;;5056778;28;20060;-78
2024/01/22 06:51:34;;;;;;;11.07;5.18;;;-9.90;99.90;;;;;;5056462;28;20029;-78
2024/01/22 06:54:00;;;;;;;10.82;3.90;;;-9.90;99.90;;;;;;5055698;28;20537;-78
2024/01/22 06:56:26;;;;;;;8.55;4.00;;;-9.90;99.90;;;;;;5056738;28;20043;-78
2024/01/22 06:58:51;;;;;;;13.90;7.25;;;-9.90;99.90;;;;;;5055757;28;20029;-77
2024/01/22 07:01:19;;;;;;;12.27;6.10;;;-9.90;99.90;;;;;;5060115;28;20025;-78
2024/01/22 07:03:45;;;;;;;12.40;4.78;;;-9.90;99.90;;;;;;5060119;28;20021;-78
2024/01/22 07:06:11;;;;;;;10.55;4.30;;;-9.90;99.90;;;;;;5057765;28;20025;-78
2024/01/22 07:08:36;;;;;;;14.00;5.35;;;-9.90;99.90;;;;;;5056815;28;20045;-78
2024/01/22 07:11:02;;;;;;;10.55;4.95;;;-9.90;99.90;;;;;;5055705;28;20057;-78
2024/01/22 07:13:28;;;;;;;13.27;5.45;;;-9.90;99.90;;;;;;5056058;28;20519;-78
2024/01/22 07:15:54;;;;;;;13.35;5.75;;;-9.90;99.90;;;;;;5056936;28;20025;-78
2024/01/22 07:18:20;;;;;;;12.10;5.53;;;-9.90;99.90;;;;;;5056695;28;20029;-78
2024/01/22 07:20:45;;;;;;;11.57;5.07;;;-9.90;99.90;;;;;;5056654;28;20028;-78
2024/01/22 07:23:12;;;;;;;8.50;3.80;;;-9.80;99.90;;;;;;5056723;28;20029;-78
2024/01/22 07:25:37;;;;;;;7.82;4.22;;;-9.90;99.90;;;;;;5055584;28;20029;-78
2024/01/22 07:28:04;;;;;;;6.53;3.85;;;-9.90;99.90;;;;;;5055424;28;20032;-78
2024/01/22 07:30:29;;;;;;;10.90;4.60;;;-9.80;99.90;;;;;;5038630;28;20029;-78
2024/01/22 07:32:56;;;;;;;11.40;5.72;;;-9.80;99.90;;;;;;5055505;28;20037;-77
2024/01/22 07:35:23;;;;;;;15.48;6.15;;;-9.70;99.90;;;;;;5056419;28;20025;-78
2024/01/22 07:37:49;;;;;;;13.20;5.00;;;-9.60;99.90;;;;;;5056153;28;20377;-78
2024/01/22 07:40:15;;;;;;;9.50;4.72;;;-9.50;99.90;;;;;;5055318;28;20025;-78
2024/01/22 07:42:41;;;;;;;9.48;4.63;;;-9.50;99.90;;;;;;5056242;28;20397;-78
2024/01/22 07:45:08;;;;;;;10.30;4.30;;;-9.40;99.90;;;;;;5056075;28;20032;-78
2024/01/22 07:47:34;;;;;;;8.10;3.97;;;-9.30;99.90;;;;;;5055054;28;20040;-78
2024/01/22 07:50:01;;;;;;;8.32;3.92;;;-9.20;99.90;;;;;;5054774;28;20085;-78
2024/01/22 07:52:27;;;;;;;9.50;4.45;;;-9.20;99.90;;;;;;5055946;28;20029;-78
2024/01/22 07:54:53;;;;;;;9.50;4.45;;;-9.10;99.90;;;;;;5055795;28;20017;-78
2024/01/22 07:57:19;;;;;;;9.00;4.45;;;-9.00;99.90;;;;;;5056009;28;20575;-78
2024/01/22 07:59:44;;;;;;;11.02;6.18;;;-8.90;99.90;;;;;;5056137;28;20381;-78
2024/01/22 08:02:10;;;;;;;11.90;6.13;;;-8.80;99.90;;;;;;5055587;28;20021;-78
2024/01/22 08:04:37;;;;;;;12.13;6.25;;;-8.70;99.90;;;;;;5054310;28;20106;-78
2024/01/22 08:07:03;;;;;;;12.82;6.88;;;-8.60;99.90;;;;;;5055631;28;20032;-78
2024/01/22 08:09:35;;;;;;;11.65;5.72;;;-8.60;99.90;;;;;;5054298;28;20522;-78
2024/01/22 08:12:03;;;;;;;18.17;8.35;;;-8.50;99.90;;;;;;5055854;28;20044;-78
2024/01/22 08:14:30;;;;;;;21.77;10.05;;;-8.40;99.90;;;;;;5055391;28;20031;-78
2024/01/22 08:16:56;;;;;;;16.63;7.38;;;-8.30;99.90;;;;;;5055519;28;20051;-78
2024/01/22 08:19:22;;;;;;;15.20;7.25;;;-8.30;99.90;;;;;;5055407;28;20401;-78
2024/01/22 08:21:48;;;;;;;13.68;6.90;;;-8.20;99.90;;;;;;5037865;28;20488;-78
2024/01/22 08:24:14;;;;;;;14.52;7.18;;;-8.10;99.90;;;;;;5053478;28;20032;-78
2024/01/22 08:26:40;;;;;;;14.00;7.20;;;-8.10;99.90;;;;;;5053377;28;20033;-78
2024/01/22 08:29:05;;;;;;;12.75;6.97;;;-8.10;99.90;;;;;;5053803;28;20058;-78
2024/01/22 08:31:31;;;;;;;12.52;5.78;;;-8.10;99.90;;;;;;5055437;28;20063;-78
2024/01/22 08:33:57;;;;;;;12.02;6.45;;;-8.10;99.90;;;;;;5054970;28;20048;-78
2024/01/22 08:36:22;;;;;;;22.02;8.00;;;-8.00;99.90;;;;;;5054779;28;20029;-78
2024/01/22 08:38:48;;;;;;;17.77;6.32;;;-8.00;99.90;;;;;;5054787;28;20028;-78
2024/01/22 08:41:14;;;;;;;16.30;5.85;;;-8.00;99.90;;;;;;5054922;28;20033;-79
2024/01/22 08:43:40;;;;;;;10.35;5.63;;;-7.90;99.90;;;;;;5054918;28;20040;-78
2024/01/22 08:46:05;;;;;;;12.05;5.93;;;-7.80;99.90;;;;;;5020631;28;20033;-78
2024/01/22 08:48:31;;;;;;;13.70;5.63;;;-7.80;99.90;;;;;;5054566;28;20021;-78
2024/01/22 08:50:57;;;;;;;13.90;6.78;;;-7.70;99.90;;;;;;5054807;28;20028;-78
2024/01/22 08:53:23;;;;;;;14.60;6.28;;;-7.60;99.90;;;;;;5055181;28;20029;-78
2024/01/22 08:55:49;;;;;;;15.90;6.22;;;-7.50;99.90;;;;;;5054160;28;20064;-78
2024/01/22 08:58:15;;;;;;;10.20;5.35;;;-7.50;99.90;;;;;;5054478;28;20107;-78
2024/01/22 09:00:41;;;;;;;12.15;5.75;;;-7.40;99.90;;;;;;5054663;28;20053;-78
2024/01/22 09:03:07;;;;;;;12.93;5.22;;;-7.20;99.90;;;;;;5053420;28;20592;-78
2024/01/22 09:05:34;;;;;;;12.90;4.93;;;-7.10;99.90;;;;;;5054745;28;20065;-78
2024/01/22 09:07:59;;;;;;;9.85;4.80;;;-7.00;99.90;;;;;;5054655;28;20021;-78
2024/01/22 09:10:26;;;;;;;9.32;4.50;;;-6.90;99.90;;;;;;5054127;28;20033;-78
2024/01/22 09:12:54;;;;;;;8.30;4.80;;;-6.80;99.90;;;;;;5053245;28;20064;-78
2024/01/22 09:15:20;;;;;;;11.82;5.68;;;-6.70;99.90;;;;;;5054392;28;20025;-78
2024/01/22 09:17:46;;;;;;;12.77;5.20;;;-6.60;99.90;;;;;;5053096;28;20175;-78
2024/01/22 09:20:12;;;;;;;10.45;5.30;;;-6.50;99.90;;;;;;5054432;28;20095;-78
2024/01/22 09:22:38;;;;;;;13.45;6.18;;;-6.40;99.90;;;;;;5053298;28;20032;-78
2024/01/22 09:25:05;;;;;;;14.23;6.10;;;-6.40;99.90;;;;;;5054099;28;20024;-78
2024/01/22 09:27:31;;;;;;;41.70;20.63;;;-6.40;99.90;;;;;;5054239;28;20043;-78
2024/01/22 09:29:58;;;;;;;45.08;18.83;;;-6.30;99.90;;;;;;5052912;28;20584;-78
2024/01/22 09:32:27;;;;;;;22.33;9.48;;;-6.20;99.90;;;;;;5054186;28;20075;-78
2024/01/22 09:34:53;;;;;;;21.00;10.35;;;-6.10;99.90;;;;;;5054156;28;20033;-78
2024/01/22 09:37:18;;;;;;;60.28;25.02;;;-6.00;99.90;;;;;;5057290;28;20388;-78
2024/01/22 09:39:44;;;;;;;36.67;16.23;;;-5.90;99.90;;;;;;5057355;28;20083;-78
2024/01/22 09:42:14;;;;;;;28.08;12.63;;;-5.70;99.90;;;;;;5058902;28;20060;-78
2024/01/22 09:44:41;;;;;;;24.48;12.15;;;-5.50;99.90;;;;;;5057138;28;20029;-78
2024/01/22 09:47:09;;;;;;;29.83;11.25;;;-5.40;99.90;;;;;;5058264;28;20063;-78
2024/01/22 09:49:36;;;;;;;19.70;8.98;;;-5.30;99.90;;;;;;5056986;28;20044;-78
2024/01/22 09:52:02;;;;;;;23.67;9.65;;;-5.20;99.90;;;;;;5058557;28;20032;-78
2024/01/22 09:54:30;;;;;;;24.13;9.63;;;-5.10;99.90;;;;;;5058414;28;20040;-78
2024/01/22 09:56:57;;;;;;;24.38;11.60;;;-5.00;99.90;;;;;;5057965;28;20369;-78
2024/01/22 09:59:26;;;;;;;21.80;10.45;;;-4.90;99.90;;;;;;5058119;28;20419;-78
2024/01/22 10:01:53;;;;;;;18.13;9.02;;;-4.80;99.90;;;;;;5058299;28;20415;-78
2024/01/22 10:04:19;;;;;;;21.40;8.05;;;-4.60;99.90;;;;;;5058265;28;20385;-78
2024/01/22 10:06:46;;;;;;;21.60;10.25;;;-4.40;99.90;;;;;;5056488;28;20020;-78
2024/01/22 10:09:15;;;;;;;18.83;9.07;;;-4.20;99.90;;;;;;5057780;28;20028;-78
2024/01/22 10:11:41;;;;;;;22.92;9.75;;;-4.00;99.90;;;;;;5057488;28;20017;-78
2024/01/22 10:14:07;;;;;;;18.30;8.48;;;-3.90;99.90;;;;;;5056441;28;20032;-78
2024/01/22 10:16:32;;;;;;;25.35;8.90;;;-3.80;99.90;;;;;;5058083;28;20029;-78
2024/01/22 10:19:00;;;;;;;15.82;7.35;;;-3.80;99.90;;;;;;5057927;28;20021;-78
2024/01/22 10:21:26;;;;;;;16.70;7.95;;;-3.70;99.90;;;;;;5057512;28;20477;-78
2024/01/22 10:24:03;;;;;;;16.88;8.18;;;-3.70;99.90;;;;;;5057691;28;20071;-78
2024/01/22 10:26:32;;;;;;;20.15;8.80;;;-3.60;99.90;;;;;;5056487;28;20032;-78
2024/01/22 10:29:19;;;;;;;17.40;9.20;;;-3.50;99.90;;;;;;5057631;28;20120;-78
2024/01/22 10:31:58;;;;;;;20.40;10.80;;;-3.30;99.90;;;;;;5057751;28;20112;-78
2024/01/22 10:34:29;;;;;;;21.02;8.98;;;-3.20;99.90;;;;;;5055981;28;20056;-78
2024/01/22 10:37:09;;;;;;;17.30;9.07;;;-3.10;99.90;;;;;;5057118;28;20355;-78
2024/01/22 10:39:37;;;;;;;24.25;9.57;;;-3.00;99.90;;;;;;5057089;28;20033;-78
2024/01/22 10:42:23;;;;;;;24.98;9.15;;;-3.00;99.90;;;;;;5056978;28;20025;-78
2024/01/22 10:44:50;;;;;;;22.80;11.45;;;-2.90;99.90;;;;;;5058122;28;20041;-78
2024/01/22 10:47:16;;;;;;;22.27;10.13;;;-2.90;99.90;;;;;;5055723;28;20118;-78
2024/01/22 10:49:43;;;;;;;18.02;8.13;;;-2.90;99.90;;;;;;5038619;28;20067;-78
2024/01/22 10:52:09;;;;;;;15.32;7.97;;;-3.00;99.90;;;;;;5056053;28;20060;-78
2024/01/22 10:54:36;;;;;;;18.50;8.90;;;-3.00;99.90;;;;;;5057919;28;20029;-78
2024/01/22 10:57:09;;;;;;;19.30;9.50;;;-3.00;99.90;;;;;;5056478;28;20029;-78
2024/01/22 10:59:37;;;;;;;17.42;8.90;;;-2.90;99.90;;;;;;5057558;28;20028;-78
2024/01/22 11:02:06;;;;;;;17.80;9.20;;;-2.80;99.90;;;;;;5058618;28;20041;-78
2024/01/22 11:04:44;;;;;;;15.80;8.00;;;-2.80;99.90;;;;;;5057553;28;20108;-78
2024/01/22 11:07:11;;;;;;;17.52;8.35;;;-2.70;99.90;;;;;;5058270;28;20029;-78
2024/01/22 11:09:38;;;;;;;17.33;9.93;;;-2.70;99.90;;;;;;5057704;28;20033;-78
2024/01/22 11:12:16;;;;;;;23.73;10.63;;;-2.60;99.90;;;;;;5058028;28;20384;-78
2024/01/22 11:14:42;;;;;;;20.25;10.70;;;-2.50;99.90;;;;;;5056665;28;20029;-78
2024/01/22 11:17:09;;;;;;;28.10;14.75;;;-2.50;99.90;;;;;;5057368;28;20087;-78
2024/01/22 11:19:36;;;;;;;21.17;11.32;;;-2.30;99.90;;;;;;5057574;28;20539;-78
2024/01/22 11:22:22;;;;;;;22.55;10.05;;;-2.20;99.90;;;;;;5058321;28;20380;-78
2024/01/22 11:25:01;;;;;;;20.52;9.85;;;-2.00;99.90;;;;;;5057567;28;20025;-78
2024/01/22 11:27:39;;;;;;;31.80;10.73;;;-1.90;99.90;;;;;;5057385;28;20032;-78
2024/01/22 11:30:25;;;;;;;20.48;8.98;;;-1.70;99.90;;;;;;5035442;28;20493;-78
2024/01/22 11:32:51;;;;;;;23.27;9.68;;;-1.50;99.90;;;;;;5036974;28;20049;-79
2024/01/22 11:35:33;;;;;;;17.20;8.88;;;-1.30;99.90;;;;;;5038516;28;20048;-78
2024/01/22 11:37:59;;;;;;;20.10;9.18;;;-1.20;99.90;;;;;;5040728;28;20542;-78
2024/01/22 11:40:55;;;;;;;21.63;7.97;;;-1.10;99.90;;;;;;5057676;28;20029;-78
2024/01/22 11:43:22;;;;;;;19.10;8.48;;;-0.90;99.90;;;;;;5049291;28;20465;-79
2024/01/22 11:45:53;;;;;;;17.30;6.90;;;-0.90;99.90;;;;;;5057966;28;20073;-79
2024/01/22 11:48:24;;;;;;;21.63;7.63;;;-0.80;99.90;;;;;;5058920;28;20116;-79
2024/01/22 11:50:59;;;;;;;12.38;6.53;;;-0.80;99.90;;;;;;5057226;28;20031;-79
2024/01/22 11:53:26;;;;;;;22.02;7.50;;;-0.80;99.90;;;;;;5058508;28;20539;-78
2024/01/22 11:56:01;;;;;;;13.25;7.40;;;-0.70;99.90;;;;;;5057984;28;20024;-78
2024/01/22 11:58:28;;;;;;;17.25;7.78;;;-0.60;99.90;;;;;;5056916;28;20032;-80
2024/01/22 12:00:54;;;;;;;17.13;7.93;;;-0.50;99.90;;;;;;5059143;28;20050;-78
2024/01/22 12:03:31;;;;;;;17.20;7.53;;;-0.40;99.90;;;;;;5055347;28;20021;-79
2024/01/22 12:06:01;;;;;;;34.42;14.55;;;-0.20;99.90;;;;;;5056756;28;20033;-79
2024/01/22 12:08:27;;;;;;;19.35;7.30;;;-0.10;99.90;;;;;;5057030;28;20389;-79
2024/01/22 12:10:56;;;;;;;48.75;21.05;;;-0.10;99.90;;;;;;5056989;28;20053;-79
2024/01/22 12:13:23;;;;;;;140.90;47.88;;;-0.10;99.90;;;;;;5055927;28;20485;-79
2024/01/22 12:15:55;;;;;;;102.55;37.03;;;-0.10;99.90;;;;;;5055594;28;20040;-79
2024/01/22 12:18:24;;;;;;;33.63;13.40;;;-0.20;99.90;;;;;;5056947;28;20017;-79
2024/01/22 12:20:50;;;;;;;11.88;6.15;;;-0.20;99.90;;;;;;5057010;28;20037;-79
2024/01/22 12:23:29;;;;;;;18.25;6.82;;;-0.30;99.90;;;;;;5055362;28;20112;-79
2024/01/22 12:25:55;;;;;;;11.63;5.80;;;-0.40;99.90;;;;;;5055240;28;20033;-79
2024/01/22 12:28:21;;;;;;;12.02;4.82;;;-0.40;99.90;;;;;;5056586;28;20021;-79
2024/01/22 12:30:56;;;;;;;13.05;5.78;;;-0.50;99.90;;;;;;5056473;28;20029;-79
2024/01/22 12:33:25;;;;;;;11.20;5.80;;;-0.50;99.90;;;;;;5056331;28;20112;-79
2024/01/22 12:36:03;;;;;;;32.88;16.17;;;-0.50;99.90;;;;;;5055117;28;20029;-79
2024/01/22 12:38:33;;;;;;;21.60;11.38;;;-0.60;99.90;;;;;;5057102;28;20492;-79